createdAt,value
2023-01-02T00:00:52.591Z,12.43
2023-01-02T00:03:19.329Z,12.20
2023-01-02T00:05:45.899Z,12.40
2023-01-02T00:08:12.386Z,11.40
2023-01-02T00:10:38.896Z,11.32
2023-01-02T00:13:05.488Z,10.70
2023-01-02T00:15:32.941Z,10.53
2023-01-02T00:17:59.271Z,11.82
2023-01-02T00:20:25.772Z,10.85
2023-01-02T00:22:52.282Z,10.57
2023-01-02T00:25:18.977Z,11.30
2023-01-02T00:27:45.480Z,11.23
2023-01-02T00:30:12.452Z,11.88
2023-01-02T00:32:38.987Z,11.63
2023-01-02T00:35:05.878Z,10.90
2023-01-02T00:37:32.300Z,12.10
2023-01-02T00:39:58.850Z,12.80
2023-01-02T00:42:25.348Z,12.20
2023-01-02T00:44:51.678Z,13.10
2023-01-02T00:47:18.318Z,11.60
2023-01-02T00:49:44.828Z,11.52
2023-01-02T00:52:11.202Z,11.30
2023-01-02T00:54:37.941Z,12.50
2023-01-02T00:57:04.565Z,12.75
2023-01-02T00:59:31.315Z,12.05
2023-01-02T01:01:57.977Z,11.75
2023-01-02T01:04:24.533Z,12.00
2023-01-02T01:06:50.841Z,12.55
2023-01-02T01:09:18.180Z,12.05
2023-01-02T01:11:44.510Z,11.75
2023-01-02T01:14:11.052Z,10.90
2023-01-02T01:16:37.414Z,11.80
2023-01-02T01:19:03.828Z,11.48
2023-01-02T01:21:30.318Z,11.35
2023-01-02T01:23:56.804Z,11.55
2023-01-02T01:26:23.616Z,12.27
2023-01-02T01:28:53.450Z,12.23
2023-01-02T01:31:21.377Z,11.25
2023-01-02T01:33:48.058Z,12.55
2023-01-02T01:36:20.009Z,12.15
2023-01-02T01:38:47.219Z,11.45
2023-01-02T01:41:20.520Z,10.50
2023-01-02T01:43:57.911Z,11.77
2023-01-02T01:46:45.250Z,12.13
2023-01-02T01:49:27.281Z,11.02
2023-01-02T01:52:04.789Z,10.82
2023-01-02T01:54:40.609Z,12.00
2023-01-02T01:57:15.156Z,11.02
2023-01-02T01:59:41.916Z,11.48
2023-01-02T02:02:08.920Z,10.95
2023-01-02T02:04:35.969Z,10.93
2023-01-02T02:07:02.792Z,11.10
2023-01-02T02:09:38.863Z,10.95
2023-01-02T02:12:06.832Z,10.48
2023-01-02T02:14:34.572Z,11.10
2023-01-02T02:17:14.477Z,10.60
2023-01-02T02:19:49.020Z,10.70
2023-01-02T02:22:46.310Z,10.77
2023-01-02T02:25:42.837Z,11.02
2023-01-02T02:28:29.701Z,10.60
2023-01-02T02:31:05.823Z,10.52
2023-01-02T02:33:46.007Z,11.63
2023-01-02T02:36:35.737Z,11.88
2023-01-02T02:39:25.809Z,11.15
2023-01-02T02:42:14.230Z,10.07
2023-01-02T02:44:58.691Z,8.75
2023-01-02T02:47:33.216Z,9.80
2023-01-02T02:50:08.857Z,10.30
2023-01-02T02:52:54.290Z,9.20
2023-01-02T02:55:35.945Z,9.45
2023-01-02T02:58:02.554Z,9.32
2023-01-02T03:00:29.104Z,10.37
2023-01-02T03:02:55.701Z,9.55
2023-01-02T03:05:36.663Z,9.88
2023-01-02T03:08:32.858Z,9.23
2023-01-02T03:11:02.412Z,9.13
2023-01-02T03:13:49.960Z,8.67
2023-01-02T03:16:33.592Z,8.45
2023-01-02T03:19:09.039Z,8.73
2023-01-02T03:22:04.937Z,9.50
2023-01-02T03:24:33.336Z,8.80
2023-01-02T03:27:04.299Z,8.53
2023-01-02T03:29:35.964Z,9.40
2023-01-02T03:32:07.064Z,10.18
2023-01-02T03:34:36.500Z,9.40
2023-01-02T03:37:08.344Z,9.70
2023-01-02T03:39:43.737Z,9.70
2023-01-02T03:42:15.482Z,9.48
2023-01-02T03:44:55.482Z,9.38
2023-01-02T03:47:47.006Z,8.82
2023-01-02T03:50:27.383Z,8.70
2023-01-02T03:52:55.072Z,7.90
2023-01-02T03:55:24.608Z,8.50
2023-01-02T03:58:01.453Z,9.27
2023-01-02T04:00:36.344Z,8.95
2023-01-02T04:03:09.786Z,9.82
2023-01-02T04:05:49.037Z,8.33
2023-01-02T04:08:50.731Z,8.40
2023-01-02T04:11:20.852Z,8.38
2023-01-02T04:13:53.309Z,8.10
2023-01-02T04:16:24.385Z,7.90
2023-01-02T04:18:58.272Z,8.23
2023-01-02T04:21:29.938Z,8.00
2023-01-02T04:24:06.551Z,6.88
2023-01-02T04:26:44.413Z,8.40
2023-01-02T04:29:11.268Z,7.57
2023-01-02T04:31:53.709Z,6.77
2023-01-02T04:34:22.416Z,7.65
2023-01-02T04:36:49.236Z,7.78
2023-01-02T04:39:15.778Z,7.95
2023-01-02T04:41:42.943Z,7.53
2023-01-02T04:44:09.306Z,7.53
2023-01-02T04:46:35.927Z,7.00
2023-01-02T04:49:02.593Z,7.90
2023-01-02T04:51:29.179Z,7.88
2023-01-02T04:53:55.744Z,7.78
2023-01-02T04:56:22.787Z,7.70
2023-01-02T04:58:50.174Z,7.63
2023-01-02T05:01:19.326Z,7.40
2023-01-02T05:03:49.166Z,6.78
2023-01-02T05:06:16.135Z,8.00
2023-01-02T05:08:42.715Z,7.10
2023-01-02T05:11:12.268Z,8.13
2023-01-02T05:13:38.653Z,7.25
2023-01-02T05:16:05.765Z,7.63
2023-01-02T05:18:32.366Z,8.15
2023-01-02T05:21:29.024Z,7.40
2023-01-02T05:23:57.345Z,7.40
2023-01-02T05:26:23.933Z,8.90
2023-01-02T05:28:53.123Z,10.25
2023-01-02T05:31:19.910Z,10.93
2023-01-02T05:33:53.567Z,12.30
2023-01-02T05:36:21.192Z,11.52
2023-01-02T05:38:47.694Z,10.65
2023-01-02T05:41:14.986Z,10.88
2023-01-02T05:43:41.493Z,11.40
2023-01-02T05:46:13.208Z,10.90
2023-01-02T05:48:40.370Z,11.07
2023-01-02T05:51:09.021Z,11.55
2023-01-02T05:53:36.167Z,13.40
2023-01-02T05:56:05.962Z,18.60
2023-01-02T05:58:34.264Z,13.43
2023-01-02T06:01:05.849Z,10.90
2023-01-02T06:03:32.262Z,10.60
2023-01-02T06:06:03.690Z,10.60
2023-01-02T06:08:30.178Z,9.98
2023-01-02T06:10:56.691Z,9.03
2023-01-02T06:13:23.178Z,10.00
2023-01-02T06:15:49.491Z,9.27
2023-01-02T06:18:15.999Z,8.88
2023-01-02T06:20:42.568Z,9.52
2023-01-02T06:23:09.071Z,9.60
2023-01-02T06:25:35.575Z,9.32
2023-01-02T06:28:01.917Z,8.98
2023-01-02T06:30:28.322Z,9.52
2023-01-02T06:32:56.735Z,7.57
2023-01-02T06:35:24.042Z,8.90
2023-01-02T06:37:50.593Z,9.05
2023-01-02T06:40:17.199Z,9.18
2023-01-02T06:42:44.803Z,9.45
2023-01-02T06:45:12.382Z,9.73
2023-01-02T06:47:38.697Z,9.23
2023-01-02T06:50:05.751Z,8.52
2023-01-02T06:52:32.252Z,10.52
2023-01-02T06:54:58.628Z,9.20
2023-01-02T06:57:25.281Z,10.68
2023-01-02T06:59:51.595Z,10.87
2023-01-02T07:02:18.022Z,11.13
2023-01-02T07:04:44.420Z,11.68
2023-01-02T07:07:10.728Z,12.35
2023-01-02T07:09:37.077Z,13.40
2023-01-02T07:12:04.054Z,14.10
2023-01-02T07:14:30.385Z,13.95
2023-01-02T07:16:57.037Z,15.10
2023-01-02T07:19:23.387Z,14.05
2023-01-02T07:21:49.695Z,14.52
2023-01-02T07:24:16.058Z,13.65
2023-01-02T07:26:42.511Z,12.10
2023-01-02T07:29:09.151Z,11.85
2023-01-02T07:31:35.757Z,12.55
2023-01-02T07:34:02.413Z,12.05
2023-01-02T07:36:28.781Z,11.70
2023-01-02T07:38:55.931Z,10.50
2023-01-02T07:41:24.740Z,10.75
2023-01-02T07:43:55.960Z,13.10
2023-01-02T07:46:22.887Z,17.95
2023-01-02T07:48:50.506Z,19.33
2023-01-02T07:51:22.702Z,18.65
2023-01-02T07:53:52.884Z,17.85
2023-01-02T07:56:19.199Z,18.02
2023-01-02T07:58:45.486Z,13.45
2023-01-02T08:01:13.248Z,14.60
2023-01-02T08:03:40.134Z,15.32
2023-01-02T08:06:17.062Z,14.80
2023-01-02T08:08:43.762Z,14.73
2023-01-02T08:11:12.938Z,17.90
2023-01-02T08:13:39.339Z,18.80
2023-01-02T08:16:11.377Z,16.35
2023-01-02T08:18:38.238Z,15.18
2023-01-02T08:21:05.572Z,12.63
2023-01-02T08:23:32.673Z,12.60
2023-01-02T08:26:03.861Z,13.60
2023-01-02T08:28:30.412Z,13.35
2023-01-02T08:30:57.195Z,13.75
2023-01-02T08:33:23.653Z,13.05
2023-01-02T08:35:50.001Z,13.88
2023-01-02T08:38:16.308Z,12.77
2023-01-02T08:40:42.603Z,13.27
2023-01-02T08:43:09.171Z,13.82
2023-01-02T08:45:35.508Z,16.17
2023-01-02T08:48:20.327Z,14.50
2023-01-02T08:50:48.325Z,12.93
2023-01-02T08:53:14.625Z,12.20
2023-01-02T08:55:40.909Z,13.38
2023-01-02T08:58:07.386Z,11.18
2023-01-02T09:00:33.670Z,11.75
2023-01-02T09:03:00.090Z,11.30
2023-01-02T09:05:28.979Z,11.38
2023-01-02T09:07:55.264Z,10.57
2023-01-02T09:10:21.628Z,11.50
2023-01-02T09:12:48.012Z,11.35
2023-01-02T09:15:14.319Z,10.60
2023-01-02T09:17:40.674Z,10.52
2023-01-02T09:20:07.269Z,10.18
2023-01-02T09:22:33.584Z,10.90
2023-01-02T09:24:59.936Z,10.10
2023-01-02T09:27:26.634Z,9.73
2023-01-02T09:29:53.786Z,10.35
2023-01-02T09:32:20.218Z,10.10
2023-01-02T09:34:50.276Z,9.90
2023-01-02T09:37:17.532Z,10.60
2023-01-02T09:39:44.126Z,10.40
2023-01-02T09:42:15.461Z,9.90
2023-01-02T09:44:48.215Z,9.32
2023-01-02T09:47:19.241Z,9.00
2023-01-02T09:49:52.823Z,10.00
2023-01-02T09:52:41.666Z,9.57
2023-01-02T09:55:31.520Z,9.95
2023-01-02T09:58:13.546Z,10.10
2023-01-02T10:00:41.694Z,9.23
2023-01-02T10:03:47.433Z,8.63
2023-01-02T10:06:38.684Z,8.83
2023-01-02T10:09:18.350Z,9.00
2023-01-02T10:12:03.924Z,9.15
2023-01-02T10:14:55.803Z,9.32
2023-01-02T10:17:24.309Z,10.07
2023-01-02T10:20:01.871Z,9.53
2023-01-02T10:22:35.980Z,9.15
2023-01-02T10:25:22.992Z,8.63
2023-01-02T10:27:58.417Z,8.85
2023-01-02T10:30:27.593Z,9.63
2023-01-02T10:33:18.256Z,10.23
2023-01-02T10:35:49.405Z,9.90
2023-01-02T10:38:18.496Z,9.43
2023-01-02T10:40:47.404Z,9.38
2023-01-02T10:43:15.217Z,9.23
2023-01-02T10:45:42.288Z,8.63
2023-01-02T10:48:12.283Z,8.63
2023-01-02T10:50:44.629Z,9.20
2023-01-02T10:53:36.955Z,9.75
2023-01-02T10:56:07.143Z,9.35
2023-01-02T10:58:35.299Z,9.37
2023-01-02T11:01:07.275Z,9.60
2023-01-02T11:03:34.353Z,9.05
2023-01-02T11:06:23.143Z,9.57
2023-01-02T11:08:56.984Z,9.85
2023-01-02T11:11:24.409Z,9.33
2023-01-02T11:13:54.544Z,9.30
2023-01-02T11:16:23.699Z,9.75
2023-01-02T11:18:55.240Z,9.48
2023-01-02T11:21:41.015Z,10.18
2023-01-02T11:24:16.353Z,9.93
2023-01-02T11:26:44.263Z,12.60
2023-01-02T11:29:18.999Z,10.85
2023-01-02T11:31:51.045Z,11.40
2023-01-02T11:34:27.454Z,10.10
2023-01-02T11:37:02.891Z,10.90
2023-01-02T11:39:31.170Z,10.00
2023-01-02T11:42:32.443Z,11.50
2023-01-02T11:45:10.654Z,11.43
2023-01-02T11:47:39.959Z,9.65
2023-01-02T11:50:06.923Z,9.70
2023-01-02T11:52:54.199Z,10.80
2023-01-02T11:55:35.527Z,11.25
2023-01-02T11:58:14.599Z,10.98
2023-01-02T12:00:44.030Z,11.50
2023-01-02T12:03:36.508Z,10.10
2023-01-02T12:06:15.118Z,11.63
2023-01-02T12:09:00.193Z,8.38
2023-01-02T12:11:41.542Z,8.57
2023-01-02T12:14:18.409Z,9.65
2023-01-02T12:16:54.496Z,10.30
2023-01-02T12:19:43.944Z,11.02
2023-01-02T12:22:29.145Z,11.63
2023-01-02T12:25:10.494Z,10.73
2023-01-02T12:27:47.398Z,10.25
2023-01-02T12:30:17.380Z,10.07
2023-01-02T12:32:45.068Z,10.85
2023-01-02T12:35:20.439Z,11.25
2023-01-02T12:37:58.467Z,11.35
2023-01-02T12:41:10.541Z,11.90
2023-01-02T12:44:00.637Z,10.83
2023-01-02T12:47:01.040Z,9.35
2023-01-02T12:50:04.501Z,8.82
2023-01-02T12:52:40.976Z,8.43
2023-01-02T12:55:15.207Z,7.45
2023-01-02T12:58:06.374Z,7.10
2023-01-02T13:00:52.169Z,7.50
2023-01-02T13:03:49.454Z,8.68
2023-01-02T13:06:45.889Z,7.88
2023-01-02T13:09:22.050Z,8.25
2023-01-02T13:12:03.518Z,8.40
2023-01-02T13:14:43.549Z,7.82
2023-01-02T13:17:33.884Z,6.70
2023-01-02T13:20:07.109Z,7.63
2023-01-02T13:22:56.112Z,7.20
2023-01-02T13:25:23.668Z,6.40
2023-01-02T13:27:58.633Z,6.93
2023-01-02T13:30:33.826Z,6.30
2023-01-02T13:33:03.572Z,6.10
2023-01-02T13:35:34.922Z,6.50
2023-01-02T13:38:04.351Z,7.33
2023-01-02T13:40:35.329Z,7.07
2023-01-02T13:43:05.854Z,7.57
2023-01-02T13:45:37.555Z,7.65
2023-01-02T13:48:19.401Z,8.10
2023-01-02T13:50:46.090Z,8.33
2023-01-02T13:53:12.319Z,8.65
2023-01-02T13:55:41.485Z,9.15
2023-01-02T13:58:20.110Z,7.80
2023-01-02T14:00:53.964Z,7.75
2023-01-02T14:03:21.413Z,8.10
2023-01-02T14:05:56.781Z,6.45
2023-01-02T14:08:28.521Z,6.18
2023-01-02T14:11:25.699Z,6.25
2023-01-02T14:13:54.885Z,5.88
2023-01-02T14:16:59.081Z,5.63
2023-01-02T14:19:26.160Z,7.88
2023-01-02T14:21:58.325Z,7.47
2023-01-02T14:24:30.710Z,7.20
2023-01-02T14:27:00.859Z,7.85
2023-01-02T14:29:29.392Z,7.07
2023-01-02T14:32:17.405Z,7.43
2023-01-02T14:34:49.108Z,8.77
2023-01-02T14:37:30.828Z,8.00
2023-01-02T14:40:16.576Z,7.80
2023-01-02T14:43:02.932Z,9.47
2023-01-02T14:45:31.195Z,8.70
2023-01-02T14:48:13.018Z,8.52
2023-01-02T14:50:42.281Z,8.98
2023-01-02T14:53:20.433Z,9.73
2023-01-02T14:55:48.845Z,9.80
2023-01-02T14:58:40.354Z,10.50
2023-01-02T15:01:08.549Z,8.13
2023-01-02T15:04:00.532Z,7.25
2023-01-02T15:06:48.125Z,7.30
2023-01-02T15:09:23.032Z,8.47
2023-01-02T15:12:12.801Z,8.15
2023-01-02T15:14:41.333Z,10.35
2023-01-02T15:17:16.485Z,9.23
2023-01-02T15:19:43.888Z,9.82
2023-01-02T15:22:13.056Z,9.97
2023-01-02T15:24:39.877Z,10.77
2023-01-02T15:27:20.390Z,11.85
2023-01-02T15:29:49.339Z,11.88
2023-01-02T15:32:31.882Z,12.35
2023-01-02T15:35:21.458Z,11.90
2023-01-02T15:37:49.532Z,11.75
2023-01-02T15:40:28.616Z,11.48
2023-01-02T15:43:18.599Z,11.45
2023-01-02T15:45:51.377Z,11.35
2023-01-02T15:48:21.544Z,11.40
2023-01-02T15:50:51.849Z,11.93
2023-01-02T15:53:32.465Z,12.65
2023-01-02T15:55:59.172Z,17.83
2023-01-02T15:58:27.890Z,16.70
2023-01-02T16:01:16.348Z,16.57
2023-01-02T16:04:01.344Z,13.93
2023-01-02T16:06:38.921Z,13.90
2023-01-02T16:09:07.926Z,20.95
2023-01-02T16:11:50.358Z,23.52
2023-01-02T16:14:31.957Z,26.33
2023-01-02T16:16:58.299Z,27.02
2023-01-02T16:19:58.013Z,20.90
2023-01-02T16:22:43.591Z,16.95
2023-01-02T16:25:33.420Z,17.65
2023-01-02T16:28:35.749Z,18.40
2023-01-02T16:31:26.261Z,19.83
2023-01-02T16:33:52.658Z,20.13
2023-01-02T16:36:21.900Z,17.52
2023-01-02T16:38:57.047Z,18.58
2023-01-02T16:41:33.855Z,19.50
2023-01-02T16:44:01.387Z,19.20
2023-01-02T16:46:28.951Z,19.27
2023-01-02T16:49:02.933Z,23.85
2023-01-02T16:51:32.076Z,20.95
2023-01-02T16:53:58.434Z,22.50
2023-01-02T16:56:24.833Z,23.52
2023-01-02T16:58:51.141Z,23.52
2023-01-02T17:01:18.634Z,22.52
2023-01-02T17:03:47.780Z,25.27
2023-01-02T17:06:16.485Z,22.60
2023-01-02T17:08:42.862Z,22.33
2023-01-02T17:11:14.609Z,21.23
2023-01-02T17:13:40.961Z,22.73
2023-01-02T17:16:07.618Z,21.55
2023-01-02T17:18:33.980Z,19.20
2023-01-02T17:21:00.275Z,20.70
2023-01-02T17:23:26.562Z,20.83
2023-01-02T17:25:52.923Z,19.20
2023-01-02T17:28:19.610Z,17.38
2023-01-02T17:30:48.883Z,17.50
2023-01-02T17:33:16.571Z,18.63
2023-01-02T17:35:45.311Z,19.23
2023-01-02T17:38:11.659Z,18.27
2023-01-02T17:40:38.031Z,18.20
2023-01-02T17:43:05.014Z,17.20
2023-01-02T17:45:31.346Z,17.15
2023-01-02T17:48:31.034Z,16.27
2023-01-02T17:50:44.041Z,15.60
2023-01-02T17:53:10.339Z,16.30
2023-01-02T17:55:36.661Z,15.37
2023-01-02T17:58:03.850Z,15.60
2023-01-02T18:00:30.169Z,15.93
2023-01-02T18:02:56.500Z,17.38
2023-01-02T18:05:23.047Z,20.55
2023-01-02T18:07:49.715Z,21.27
2023-01-02T18:10:20.148Z,29.25
2023-01-02T18:12:48.955Z,25.83
2023-01-02T18:15:15.999Z,17.52
2023-01-02T18:17:42.914Z,15.77
2023-01-02T18:20:13.886Z,9.63
2023-01-02T18:22:48.054Z,8.13
2023-01-02T18:25:26.836Z,8.05
2023-01-02T18:28:00.912Z,8.07
2023-01-02T18:30:27.751Z,7.60
2023-01-02T18:33:03.701Z,9.10
2023-01-02T18:38:37.687Z,8.30
2023-01-02T18:41:16.394Z,9.10
2023-01-02T18:43:45.076Z,9.30
2023-01-02T18:46:17.064Z,9.97
2023-01-02T18:48:43.901Z,11.00
2023-01-02T18:51:18.303Z,9.93
2023-01-02T18:53:50.385Z,10.90
2023-01-02T18:56:22.637Z,10.57
2023-01-02T18:59:02.211Z,11.53
2023-01-02T19:01:33.552Z,11.07
2023-01-02T19:04:22.511Z,13.90
2023-01-02T19:06:55.902Z,15.27
2023-01-02T19:09:28.013Z,14.13
2023-01-02T19:12:33.764Z,13.63
2023-01-02T19:15:20.959Z,13.20
2023-01-02T19:17:47.271Z,11.43
2023-01-02T19:20:14.563Z,11.07
2023-01-02T19:22:40.855Z,11.05
2023-01-02T19:25:22.076Z,10.07
2023-01-02T19:27:48.525Z,10.73
2023-01-02T19:30:35.778Z,10.18
2023-01-02T19:33:29.167Z,10.05
2023-01-02T19:35:59.353Z,14.50
2023-01-02T19:38:28.638Z,14.53
2023-01-02T19:40:55.992Z,18.75
2023-01-02T19:43:22.473Z,19.77
2023-01-02T19:45:48.811Z,38.50
2023-01-02T19:48:18.243Z,32.70
2023-01-02T19:50:45.179Z,28.20
2023-01-02T19:53:11.529Z,28.13
2023-01-02T19:55:37.900Z,21.90
2023-01-02T19:58:05.063Z,18.45
2023-01-02T20:00:31.991Z,16.42
2023-01-02T20:02:58.516Z,14.37
2023-01-02T20:05:25.221Z,11.35
2023-01-02T20:07:52.935Z,10.38
2023-01-02T20:10:19.574Z,11.55
2023-01-02T20:12:45.908Z,12.18
2023-01-02T20:15:23.980Z,11.67
2023-01-02T20:17:51.582Z,10.05
2023-01-02T20:20:20.760Z,9.30
2023-01-02T20:22:49.162Z,11.20
2023-01-02T20:25:15.960Z,11.45
2023-01-02T20:27:42.426Z,15.80
2023-01-02T20:30:10.058Z,16.08
2023-01-02T20:32:36.510Z,18.77
2023-01-02T20:35:03.779Z,23.50
2023-01-02T20:37:30.953Z,16.40
2023-01-02T20:39:57.283Z,15.47
2023-01-02T20:42:23.626Z,14.32
2023-01-02T20:44:50.553Z,13.00
2023-01-02T20:47:17.198Z,11.90
2023-01-02T20:49:43.554Z,15.13
2023-01-02T20:52:09.923Z,12.90
2023-01-02T20:54:36.382Z,11.63
2023-01-02T20:57:02.861Z,12.32
2023-01-02T20:59:29.228Z,12.40
2023-01-02T21:01:55.685Z,12.93
2023-01-02T21:04:23.394Z,12.73
2023-01-02T21:06:55.939Z,12.65
2023-01-02T21:09:22.385Z,12.75
2023-01-02T21:11:48.772Z,12.68
2023-01-02T21:14:15.083Z,12.95
2023-01-02T21:16:41.446Z,11.93
2023-01-02T21:19:07.867Z,12.88
2023-01-02T21:21:34.207Z,12.57
2023-01-02T21:24:01.432Z,13.02
2023-01-02T21:26:27.779Z,12.70
2023-01-02T21:28:54.125Z,11.97
2023-01-02T21:31:21.133Z,14.38
2023-01-02T21:33:48.152Z,16.35
2023-01-02T21:36:15.548Z,17.25
2023-01-02T21:38:42.772Z,17.88
2023-01-02T21:41:28.032Z,17.70
2023-01-02T21:43:54.423Z,18.88
2023-01-02T21:46:21.289Z,23.83
2023-01-02T21:48:47.646Z,28.08
2023-01-02T21:51:14.016Z,26.60
2023-01-02T21:53:40.487Z,15.67
2023-01-02T21:56:07.228Z,15.68
2023-01-02T21:58:33.555Z,15.95
2023-01-02T22:01:00.029Z,15.10
2023-01-02T22:03:26.623Z,15.80
2023-01-02T22:05:53.801Z,13.67
2023-01-02T22:08:20.287Z,13.60
2023-01-02T22:10:48.609Z,9.27
2023-01-02T22:13:15.244Z,8.82
2023-01-02T22:15:41.732Z,7.85
2023-01-02T22:18:08.168Z,4.70
2023-01-02T22:20:34.622Z,3.38
2023-01-02T22:23:00.966Z,2.10
2023-01-02T22:25:27.404Z,1.65
2023-01-02T22:27:53.787Z,1.27
2023-01-02T22:30:24.748Z,1.17
2023-01-02T22:32:54.529Z,1.23
2023-01-02T22:35:20.904Z,0.57
2023-01-02T22:37:47.358Z,0.80
2023-01-02T22:40:13.785Z,0.90
2023-01-02T22:43:00.884Z,0.67
2023-01-02T22:45:33.013Z,0.60
2023-01-02T22:48:03.487Z,0.30
2023-01-02T22:50:41.893Z,0.50
2023-01-02T22:53:26.188Z,0.57
2023-01-02T22:55:53.100Z,0.43
2023-01-02T22:58:19.805Z,0.50
2023-01-02T23:00:47.949Z,0.68
2023-01-02T23:03:15.963Z,0.60
2023-01-02T23:05:42.882Z,0.75
2023-01-02T23:08:09.300Z,0.50
2023-01-02T23:10:35.641Z,0.50
2023-01-02T23:13:02.040Z,0.57
2023-01-02T23:15:28.448Z,0.77
2023-01-02T23:18:13.345Z,0.47
2023-01-02T23:20:39.644Z,0.50
2023-01-02T23:23:07.383Z,0.60
2023-01-02T23:25:33.684Z,0.57
2023-01-02T23:28:00.111Z,0.38
2023-01-02T23:30:26.396Z,0.55
2023-01-02T23:32:52.695Z,0.30
2023-01-02T23:35:18.989Z,0.43
2023-01-02T23:37:45.399Z,0.50
2023-01-02T23:40:12.204Z,0.40
2023-01-02T23:42:38.536Z,0.40
2023-01-02T23:45:05.137Z,0.40
2023-01-02T23:47:31.466Z,0.50
2023-01-02T23:49:57.767Z,0.38
2023-01-02T23:52:24.093Z,0.45
2023-01-02T23:54:50.408Z,0.40
2023-01-02T23:57:16.777Z,0.50
2023-01-02T23:59:43.235Z,0.35
